Aérodrome :
LOGIN :

S'inscrire | Disclaimer

   EN    FR    IT 

 










Légende :    VFR   VFR Marginal   IFR   IFR Intensif   IFR Très Intensif
Visi : 
Plafond : 
>= 8 km
>= 3000ft
5 à 8 km
1000 à 3000 ft
1500m à 5 km
500 à 1000 ft
800 à 1500m
200 à 500 ft
< 800m
< 200 ft
Symboles :   Orages  Brouillard  Fortes neiges  Fortes précipitations  Vent > 20 kt
SIGMETs :   Divers  Orages  Givrage  Turbulence  Onde Orograph.  Cendres Volcan.






- Altitude de l'aérodrome : 56 ft
- Code IATA : TRD


ENVA - Trondheim , Værnes

DERNIER METAR :
  • 220050Z 30027G46KT 8000 SHRASN FEW011 SCT017 BKN020 03/M01 Q1015 RMK WIND 670FT 31038G57KT

METARs EXPIRÉS :
  • 220020Z 28028G39KT 9999 VCSH FEW018 BKN025 04/M01 Q1015 RMK WIND 670FT 29031G45KT
  • 212350Z 27028KT 9999 VCSH FEW010 SCT020 BKN025 02/01 Q1014 RMK WIND 670FT 29034G44KT
  • 212320Z 28030G40KT 7000 SHRASN SCT010 BKN020 03/00 Q1014 RMK WIND 670FT 28033G46KT
  • 212250Z 28031G43KT 7000 SHRASN FEW005 SCT010 BKN015 03/M01 Q1014 RMK WIND 670FT 29038G53KT

TAF TAF ENVA
Valide du 22 à 00h jusqu'au 23 à 00h UTC


2200/2224 27022KT 9999 -SHRASN FEW008 BKN030
TEMPO 2200/2209 28030G42KT
TEMPO 2200/2215 1200 SHRASN BKN007 SCT020CB
BECMG 2206/2209 27015G25KT
BECMG 2216/2218 21010KT
BECMG 2218/2220 13005KT
PROB40 2222/2224 4000 RASN VV014



MET'MAP, la Météo Aéronautique d'un coup d'oeil ! - Copyright ORBIFLY Décembre 2007 - Disclaimer

ORBIFLY MET'MAP TEAM :

Programmation & Développement : Alexandra Zaïnal
Sur une idée originale de : Baudouin d'Aumeries
Assistance à la programmation : Marc-Olivier Méhu
Soutien technique & logistique : Manuel Goepfert

Contact : metmap@orbifly.com




SOURCES & CREDITS :

   NOAA